createdAt,value
2019-03-30T00:00:03.445Z,315.00
2019-03-30T00:01:03.452Z,315.00
2019-03-30T00:02:03.489Z,315.00
2019-03-30T00:03:03.495Z,315.00
2019-03-30T00:04:03.441Z,315.00
2019-03-30T00:05:03.475Z,315.00
2019-03-30T00:06:03.506Z,315.00
2019-03-30T00:07:03.509Z,315.00
2019-03-30T00:08:03.553Z,315.00
2019-03-30T00:09:03.543Z,315.00
2019-03-30T00:10:03.538Z,315.00
2019-03-30T00:11:03.567Z,315.00
2019-03-30T00:12:03.594Z,315.00
2019-03-30T00:13:03.563Z,315.00
2019-03-30T00:14:03.596Z,315.00
2019-03-30T00:15:03.607Z,315.00
2019-03-30T00:16:03.603Z,315.00
2019-03-30T00:17:03.637Z,315.00
2019-03-30T00:18:03.671Z,315.00
2019-03-30T00:19:03.642Z,315.00
2019-03-30T00:20:03.683Z,315.00
2019-03-30T00:21:03.689Z,315.00
2019-03-30T00:22:03.687Z,315.00
2019-03-30T00:23:03.680Z,315.00
2019-03-30T00:24:03.740Z,315.00
2019-03-30T00:25:03.698Z,315.00
2019-03-30T00:26:03.758Z,315.00
2019-03-30T00:27:03.761Z,315.00
2019-03-30T00:28:03.716Z,315.00
2019-03-30T00:29:03.807Z,315.00
2019-03-30T00:30:03.824Z,315.00
2019-03-30T00:31:03.765Z,315.00
2019-03-30T00:32:03.825Z,315.00
2019-03-30T00:33:03.895Z,315.00
2019-03-30T00:34:03.797Z,315.00
2019-03-30T00:35:03.819Z,315.00
2019-03-30T00:36:03.883Z,315.00
2019-03-30T00:37:03.832Z,315.00
2019-03-30T00:38:03.895Z,315.00
2019-03-30T00:39:03.890Z,315.00
2019-03-30T00:40:03.895Z,315.00
2019-03-30T00:41:03.914Z,315.00
2019-03-30T00:42:03.943Z,315.00
2019-03-30T00:43:03.917Z,315.00
2019-03-30T00:44:03.954Z,315.00
2019-03-30T00:45:03.973Z,315.00
2019-03-30T00:46:03.925Z,315.00
2019-03-30T00:47:04.002Z,315.00
2019-03-30T00:48:04.016Z,315.00
2019-03-30T00:49:03.978Z,315.00
2019-03-30T00:50:04.015Z,315.00
2019-03-30T00:51:04.020Z,315.00
2019-03-30T00:52:04.008Z,315.00
2019-03-30T00:53:04.059Z,315.00
2019-03-30T00:54:04.126Z,315.00
2019-03-30T00:55:04.081Z,315.00
2019-03-30T00:56:04.075Z,315.00
2019-03-30T00:57:04.105Z,315.00
2019-03-30T00:58:04.073Z,315.00
2019-03-30T00:59:04.132Z,315.00
2019-03-30T01:00:04.158Z,315.00
2019-03-30T01:01:04.122Z,315.00
2019-03-30T01:02:04.170Z,315.00
2019-03-30T01:03:04.179Z,315.00
2019-03-30T01:04:04.196Z,315.00
2019-03-30T01:05:04.181Z,315.00
2019-03-30T01:06:04.233Z,315.00
2019-03-30T01:07:04.194Z,315.00
2019-03-30T01:08:04.215Z,315.00
2019-03-30T01:09:04.236Z,315.00
2019-03-30T01:10:04.228Z,315.00
2019-03-30T01:11:04.230Z,315.00
2019-03-30T01:12:04.277Z,315.00
2019-03-30T01:13:04.285Z,315.00
2019-03-30T01:14:04.295Z,315.00
2019-03-30T01:15:04.312Z,315.00
2019-03-30T01:16:04.290Z,315.00
2019-03-30T01:17:04.353Z,315.00
2019-03-30T01:18:04.386Z,315.00
2019-03-30T01:19:04.343Z,315.00
2019-03-30T01:20:04.348Z,315.00
2019-03-30T01:21:04.375Z,315.00
2019-03-30T01:22:04.358Z,315.00
2019-03-30T01:23:04.427Z,315.00
2019-03-30T01:24:04.446Z,315.00
2019-03-30T01:25:04.427Z,315.00
2019-03-30T01:26:04.424Z,315.00
2019-03-30T01:27:04.452Z,315.00
2019-03-30T01:28:04.422Z,315.00
2019-03-30T01:29:04.465Z,315.00
2019-03-30T01:30:04.507Z,315.00
2019-03-30T01:31:04.509Z,315.00
2019-03-30T01:32:04.515Z,315.00
2019-03-30T01:33:04.518Z,315.00
2019-03-30T01:34:04.481Z,315.00
2019-03-30T01:35:04.572Z,315.00
2019-03-30T01:36:04.571Z,315.00
2019-03-30T01:37:04.582Z,315.00
2019-03-30T01:38:04.577Z,315.00
2019-03-30T01:39:04.624Z,315.00
2019-03-30T01:40:04.573Z,315.00
2019-03-30T01:41:04.579Z,315.00
2019-03-30T01:42:04.604Z,315.00
2019-03-30T01:43:04.646Z,315.00
2019-03-30T01:44:04.648Z,315.00
2019-03-30T01:45:04.732Z,315.00
2019-03-30T01:46:04.628Z,315.00
2019-03-30T01:47:04.674Z,315.00
2019-03-30T01:48:04.712Z,315.00
2019-03-30T01:49:04.703Z,315.00
2019-03-30T01:50:16.558Z,315.00
2019-03-30T01:51:04.712Z,315.00
2019-03-30T01:52:04.707Z,315.00
2019-03-30T01:53:04.725Z,315.00
2019-03-30T01:54:04.739Z,315.00
2019-03-30T01:55:04.683Z,315.00
2019-03-30T01:56:04.734Z,315.00
2019-03-30T01:57:04.753Z,315.00
2019-03-30T01:58:04.706Z,315.00
2019-03-30T01:59:04.699Z,315.00
2019-03-30T02:00:04.756Z,315.00
2019-03-30T02:01:04.721Z,315.00
2019-03-30T02:02:04.715Z,315.00
2019-03-30T02:03:04.737Z,315.00
2019-03-30T02:04:04.687Z,315.00
2019-03-30T02:05:04.734Z,315.00
2019-03-30T02:06:04.734Z,315.00
2019-03-30T02:07:04.734Z,315.00
2019-03-30T02:08:04.731Z,315.00
2019-03-30T02:09:04.750Z,315.00
2019-03-30T02:10:04.709Z,315.00
2019-03-30T02:11:04.731Z,315.00
2019-03-30T02:12:04.742Z,315.00
2019-03-30T02:13:04.698Z,315.00
2019-03-30T02:14:04.755Z,315.00
2019-03-30T02:15:04.733Z,315.00
2019-03-30T02:16:04.712Z,315.00
2019-03-30T02:17:04.727Z,315.00
2019-03-30T02:18:04.752Z,315.00
2019-03-30T02:19:04.718Z,315.00
2019-03-30T02:20:04.718Z,315.00
2019-03-30T02:21:04.723Z,315.00
2019-03-30T02:22:04.722Z,315.00
2019-03-30T02:23:04.725Z,315.00
2019-03-30T02:24:04.736Z,315.00
2019-03-30T02:25:04.719Z,315.00
2019-03-30T02:26:04.727Z,315.00
2019-03-30T02:27:04.730Z,315.00
2019-03-30T02:28:06.833Z,315.00
2019-03-30T02:29:04.728Z,315.00
2019-03-30T02:30:04.816Z,315.00
2019-03-30T02:31:04.767Z,315.00
2019-03-30T02:32:04.755Z,315.00
2019-03-30T02:33:04.755Z,315.00
2019-03-30T02:34:04.695Z,315.00
2019-03-30T02:35:04.729Z,315.00
2019-03-30T02:36:04.754Z,315.00
2019-03-30T02:37:04.723Z,315.00
2019-03-30T02:38:04.737Z,315.00
2019-03-30T02:39:04.751Z,315.00
2019-03-30T02:40:04.732Z,315.00
2019-03-30T02:41:04.765Z,315.00
2019-03-30T02:42:04.772Z,315.00
2019-03-30T02:43:04.750Z,315.00
2019-03-30T02:44:04.766Z,315.00
2019-03-30T02:45:04.790Z,315.00
2019-03-30T02:46:04.806Z,315.00
2019-03-30T02:47:04.829Z,315.00
2019-03-30T02:48:04.862Z,315.00
2019-03-30T02:49:04.837Z,315.00
2019-03-30T02:50:04.857Z,315.00
2019-03-30T02:51:04.891Z,315.00
2019-03-30T02:52:04.865Z,315.00
2019-03-30T02:53:04.911Z,315.00
2019-03-30T02:54:04.967Z,315.00
2019-03-30T02:55:04.888Z,315.00
2019-03-30T02:56:04.951Z,315.00
2019-03-30T02:57:04.964Z,315.00
2019-03-30T02:58:04.919Z,315.00
2019-03-30T02:59:04.970Z,315.00
2019-03-30T03:00:05.020Z,315.00
2019-03-30T03:01:04.964Z,315.00
2019-03-30T03:02:05.015Z,315.00
2019-03-30T03:03:05.026Z,315.00
2019-03-30T03:04:04.990Z,315.00
2019-03-30T03:05:05.022Z,315.00
2019-03-30T03:06:05.071Z,315.00
2019-03-30T03:07:05.052Z,315.00
2019-03-30T03:08:05.073Z,315.00
2019-03-30T03:09:05.063Z,315.00
2019-03-30T03:10:05.084Z,315.00
2019-03-30T03:11:05.118Z,315.00
2019-03-30T03:12:05.141Z,315.00
2019-03-30T03:13:05.091Z,315.00
2019-03-30T03:14:05.132Z,315.00
2019-03-30T03:15:05.123Z,315.00
2019-03-30T03:16:05.149Z,315.00
2019-03-30T03:17:05.171Z,315.00
2019-03-30T03:18:05.199Z,315.00
2019-03-30T03:19:05.196Z,315.00
2019-03-30T03:20:05.209Z,315.00
2019-03-30T03:21:07.815Z,315.00
2019-03-30T03:22:05.202Z,315.00
2019-03-30T03:23:05.225Z,315.00
2019-03-30T03:24:05.233Z,315.00
2019-03-30T03:25:05.213Z,315.00
2019-03-30T03:26:05.222Z,315.00
2019-03-30T03:27:05.247Z,315.00
2019-03-30T03:28:05.184Z,315.00
2019-03-30T03:29:05.241Z,315.00
2019-03-30T03:30:05.248Z,315.00
2019-03-30T03:31:05.278Z,315.00
2019-03-30T03:32:05.254Z,315.00
2019-03-30T03:33:05.236Z,315.00
2019-03-30T03:34:05.202Z,315.00
2019-03-30T03:35:05.249Z,315.00
2019-03-30T03:36:05.264Z,315.00
2019-03-30T03:37:05.241Z,315.00
2019-03-30T03:38:05.219Z,315.00
2019-03-30T03:39:05.217Z,315.00
2019-03-30T03:40:05.200Z,315.00
2019-03-30T03:41:05.244Z,315.00
2019-03-30T03:42:05.253Z,315.00
2019-03-30T03:43:05.241Z,315.00
2019-03-30T03:44:05.226Z,315.00
2019-03-30T03:45:05.225Z,315.00
2019-03-30T03:46:05.201Z,315.00
2019-03-30T03:47:05.217Z,315.00
2019-03-30T03:48:05.260Z,315.00
2019-03-30T03:49:05.221Z,315.00
2019-03-30T03:50:05.323Z,315.00
2019-03-30T03:51:05.246Z,315.00
2019-03-30T03:52:05.208Z,315.00
2019-03-30T03:53:05.304Z,315.00
2019-03-30T03:54:05.232Z,315.00
2019-03-30T03:55:05.206Z,315.00
2019-03-30T03:56:05.240Z,315.00
2019-03-30T03:57:05.242Z,315.00
2019-03-30T03:58:05.188Z,315.00
2019-03-30T03:59:05.274Z,315.00
2019-03-30T04:00:05.319Z,315.00
2019-03-30T04:01:05.223Z,315.00
2019-03-30T04:02:05.257Z,315.00
2019-03-30T04:03:05.260Z,315.00
2019-03-30T04:04:05.209Z,315.00
2019-03-30T04:05:05.237Z,315.00
2019-03-30T04:06:05.244Z,315.00
2019-03-30T04:07:05.213Z,315.00
2019-03-30T04:08:05.250Z,315.00
2019-03-30T04:09:05.243Z,315.00
2019-03-30T04:10:05.202Z,315.00
2019-03-30T04:11:05.354Z,315.00
2019-03-30T04:12:05.281Z,315.00
2019-03-30T04:13:07.157Z,315.00
2019-03-30T04:14:05.243Z,315.00
2019-03-30T04:15:05.259Z,315.00
2019-03-30T04:16:05.214Z,315.00
2019-03-30T04:17:05.242Z,315.00
2019-03-30T04:18:05.271Z,315.00
2019-03-30T04:19:05.239Z,315.00
2019-03-30T04:20:05.256Z,315.00
2019-03-30T04:21:05.278Z,315.00
2019-03-30T04:22:05.210Z,315.00
2019-03-30T04:23:05.276Z,315.00
2019-03-30T04:24:05.270Z,315.00
2019-03-30T04:25:05.268Z,315.00
2019-03-30T04:26:05.247Z,315.00
2019-03-30T04:27:05.243Z,315.00
2019-03-30T04:28:05.249Z,315.00
2019-03-30T04:29:05.269Z,315.00
2019-03-30T04:30:05.278Z,315.00
2019-03-30T04:31:05.244Z,315.00
2019-03-30T04:32:05.258Z,315.00
2019-03-30T04:33:05.265Z,315.00
2019-03-30T04:34:05.237Z,315.00
2019-03-30T04:35:05.267Z,315.00
2019-03-30T04:36:05.275Z,315.00
2019-03-30T04:37:05.280Z,315.00
2019-03-30T04:38:05.271Z,315.00
2019-03-30T04:39:05.268Z,315.00
2019-03-30T04:40:05.249Z,315.00
2019-03-30T04:41:05.257Z,315.00
2019-03-30T04:42:05.281Z,315.00
2019-03-30T04:43:05.242Z,315.00
2019-03-30T04:44:05.255Z,315.00
2019-03-30T04:45:05.272Z,315.00
2019-03-30T04:46:05.236Z,315.00
2019-03-30T04:47:05.268Z,315.00
2019-03-30T04:48:05.311Z,315.00
2019-03-30T04:49:05.254Z,315.00
2019-03-30T04:50:05.254Z,315.00
2019-03-30T04:51:05.255Z,315.00
2019-03-30T04:52:05.241Z,315.00
2019-03-30T04:53:05.251Z,315.00
2019-03-30T04:54:05.294Z,315.00
2019-03-30T04:55:05.229Z,315.00
2019-03-30T04:56:05.258Z,315.00
2019-03-30T04:57:05.273Z,315.00
2019-03-30T04:58:07.579Z,315.00
2019-03-30T04:59:05.271Z,315.00
2019-03-30T05:00:05.321Z,311.13
2019-03-30T05:01:05.281Z,270.00
2019-03-30T05:02:05.266Z,285.11
2019-03-30T05:03:05.277Z,315.00
2019-03-30T05:04:05.306Z,315.00
2019-03-30T05:05:05.320Z,315.00
2019-03-30T05:06:05.303Z,315.00
2019-03-30T05:07:05.248Z,315.00
2019-03-30T05:08:05.285Z,315.00
2019-03-30T05:09:05.290Z,315.00
2019-03-30T05:10:05.255Z,315.00
2019-03-30T05:11:05.293Z,315.00
2019-03-30T05:12:05.305Z,315.00
2019-03-30T05:13:05.280Z,315.00
2019-03-30T05:14:05.279Z,315.00
2019-03-30T05:15:05.428Z,315.00
2019-03-30T05:16:05.255Z,315.00
2019-03-30T05:17:05.333Z,315.00
2019-03-30T05:18:05.348Z,315.00
2019-03-30T05:19:05.253Z,315.00
2019-03-30T05:20:05.290Z,315.00
2019-03-30T05:21:05.291Z,315.00
2019-03-30T05:22:12.159Z,307.10
2019-03-30T05:23:05.309Z,300.57
2019-03-30T05:24:05.334Z,315.00
2019-03-30T05:25:05.261Z,315.00
2019-03-30T05:26:05.292Z,315.00
2019-03-30T05:27:05.313Z,315.00
2019-03-30T05:28:05.283Z,315.00
2019-03-30T05:29:05.319Z,270.88
2019-03-30T05:30:05.320Z,270.00
2019-03-30T05:31:05.290Z,270.00
2019-03-30T05:32:05.287Z,270.00
2019-03-30T05:33:06.286Z,270.00
2019-03-30T05:34:05.340Z,270.00
2019-03-30T05:35:05.302Z,270.00
2019-03-30T05:36:05.333Z,270.00
2019-03-30T05:37:05.265Z,270.00
2019-03-30T05:38:05.305Z,270.00
2019-03-30T05:39:05.340Z,270.00
2019-03-30T05:40:05.271Z,253.45
2019-03-30T05:41:05.324Z,135.00
2019-03-30T05:42:05.332Z,135.00
2019-03-30T05:43:05.292Z,135.00
2019-03-30T05:44:05.313Z,135.00
2019-03-30T05:45:05.323Z,135.00
2019-03-30T05:46:05.264Z,135.00
2019-03-30T05:47:05.340Z,135.00
2019-03-30T05:48:05.336Z,135.00
2019-03-30T05:49:05.263Z,135.00
2019-03-30T05:50:05.353Z,135.00
2019-03-30T05:51:05.338Z,135.00
2019-03-30T05:52:05.276Z,95.84
2019-03-30T05:53:05.287Z,50.82
2019-03-30T05:54:05.353Z,45.00
2019-03-30T05:55:05.285Z,45.00
2019-03-30T05:56:05.273Z,45.00
2019-03-30T05:57:05.334Z,45.00
2019-03-30T05:58:05.297Z,45.00
2019-03-30T05:59:05.297Z,45.00
2019-03-30T06:00:05.414Z,45.00
2019-03-30T06:01:05.286Z,45.00
2019-03-30T06:02:05.311Z,45.00
2019-03-30T06:03:05.331Z,45.00
2019-03-30T06:04:05.283Z,45.00
2019-03-30T06:05:05.339Z,45.00
2019-03-30T06:06:05.331Z,45.00
2019-03-30T06:07:05.304Z,36.76
2019-03-30T06:08:05.301Z,306.06
2019-03-30T06:09:05.327Z,304.05
2019-03-30T06:10:05.310Z,315.00
2019-03-30T06:11:05.328Z,320.76
2019-03-30T06:12:05.347Z,339.51
2019-03-30T06:13:05.271Z,330.39
2019-03-30T06:14:05.335Z,310.91
2019-03-30T06:15:05.367Z,270.00
2019-03-30T06:16:05.309Z,300.57
2019-03-30T06:17:05.340Z,296.57
2019-03-30T06:18:05.322Z,280.05
2019-03-30T06:19:05.301Z,288.67
2019-03-30T06:20:05.326Z,313.95
2019-03-30T06:21:05.363Z,271.55
2019-03-30T06:22:05.342Z,285.95
2019-03-30T06:23:05.323Z,315.00
2019-03-30T06:24:05.314Z,315.00
2019-03-30T06:25:05.313Z,315.00
2019-03-30T06:26:05.347Z,309.84
2019-03-30T06:27:05.353Z,294.00
2019-03-30T06:28:05.355Z,256.36
2019-03-30T06:29:05.334Z,270.00
2019-03-30T06:30:05.356Z,280.60
2019-03-30T06:31:05.301Z,270.00
2019-03-30T06:32:05.350Z,292.43
2019-03-30T06:33:05.403Z,307.80
2019-03-30T06:34:05.332Z,270.00
2019-03-30T06:35:05.327Z,270.00
2019-03-30T06:36:05.349Z,272.51
2019-03-30T06:37:05.325Z,280.73
2019-03-30T06:38:05.351Z,282.98
2019-03-30T06:39:05.375Z,270.00
2019-03-30T06:40:05.323Z,270.00
2019-03-30T06:41:05.318Z,287.65
2019-03-30T06:42:05.335Z,300.42
2019-03-30T06:43:07.696Z,270.00
2019-03-30T06:44:05.353Z,270.00
2019-03-30T06:45:05.354Z,265.19
2019-03-30T06:46:05.327Z,265.62
2019-03-30T06:47:05.310Z,272.96
2019-03-30T06:48:05.363Z,328.55
2019-03-30T06:49:05.322Z,227.86
2019-03-30T06:50:05.353Z,216.35
2019-03-30T06:51:05.352Z,90.00
2019-03-30T06:52:05.310Z,90.00
2019-03-30T06:53:05.339Z,158.62
2019-03-30T06:54:05.360Z,270.00
2019-03-30T06:55:05.347Z,270.00
2019-03-30T06:56:05.364Z,270.00
2019-03-30T06:57:05.363Z,270.00
2019-03-30T06:58:05.341Z,283.44
2019-03-30T06:59:05.359Z,315.00
2019-03-30T07:00:05.369Z,352.44
2019-03-30T07:01:05.340Z,0.00
2019-03-30T07:02:05.339Z,19.75
2019-03-30T07:03:05.367Z,90.00
2019-03-30T07:04:05.339Z,90.00
2019-03-30T07:05:05.379Z,145.91
2019-03-30T07:06:05.400Z,253.31
2019-03-30T07:07:05.321Z,170.69
2019-03-30T07:08:05.381Z,225.00
2019-03-30T07:09:05.364Z,225.00
2019-03-30T07:10:05.325Z,225.00
2019-03-30T07:11:05.364Z,181.89
2019-03-30T07:12:05.387Z,225.00
2019-03-30T07:13:05.340Z,186.31
2019-03-30T07:14:05.370Z,90.00
2019-03-30T07:15:05.416Z,90.00
2019-03-30T07:16:05.376Z,90.00
2019-03-30T07:17:05.372Z,90.00
2019-03-30T07:18:05.416Z,90.00
2019-03-30T07:19:05.375Z,90.00
2019-03-30T07:20:05.342Z,77.23
2019-03-30T07:21:05.435Z,0.00
2019-03-30T07:22:05.332Z,0.00
2019-03-30T07:23:11.833Z,323.22
2019-03-30T07:24:05.382Z,225.00
2019-03-30T07:25:05.426Z,225.00
2019-03-30T07:26:05.365Z,225.00
2019-03-30T07:27:05.369Z,45.00
2019-03-30T07:28:05.360Z,52.70
2019-03-30T07:29:05.486Z,90.00
2019-03-30T07:30:05.395Z,90.00
2019-03-30T07:31:05.351Z,90.00
2019-03-30T07:32:05.362Z,90.00
2019-03-30T07:33:05.405Z,90.00
2019-03-30T07:34:05.352Z,90.00
2019-03-30T07:35:05.396Z,90.00
2019-03-30T07:36:05.402Z,90.00
2019-03-30T07:37:05.354Z,90.00
2019-03-30T07:38:05.385Z,90.00
2019-03-30T07:39:05.378Z,90.00
2019-03-30T07:40:05.376Z,90.00
2019-03-30T07:41:05.409Z,90.00
2019-03-30T07:42:05.425Z,66.60
2019-03-30T07:43:05.366Z,86.87
2019-03-30T07:44:05.369Z,90.00
2019-03-30T07:45:05.381Z,90.00
2019-03-30T07:46:05.367Z,90.00
2019-03-30T07:47:05.357Z,90.00
2019-03-30T07:48:05.407Z,90.00
2019-03-30T07:49:05.349Z,90.00
2019-03-30T07:50:05.372Z,90.00
2019-03-30T07:51:05.387Z,90.00
2019-03-30T07:52:05.369Z,90.00
2019-03-30T07:53:05.383Z,90.00
2019-03-30T07:54:05.411Z,90.00
2019-03-30T07:55:05.369Z,326.34
2019-03-30T07:56:08.514Z,341.30
2019-03-30T07:57:12.323Z,225.25
2019-03-30T07:58:05.411Z,180.00
2019-03-30T07:59:05.411Z,180.00
2019-03-30T08:00:05.410Z,180.00
2019-03-30T08:01:05.361Z,180.00
2019-03-30T08:02:05.406Z,135.30
2019-03-30T08:03:05.401Z,90.00
2019-03-30T08:04:05.356Z,90.00
2019-03-30T08:05:05.492Z,90.00
2019-03-30T08:06:05.432Z,90.00
2019-03-30T08:07:05.379Z,104.79
2019-03-30T08:08:05.391Z,101.37
2019-03-30T08:09:05.408Z,271.38
2019-03-30T08:10:05.452Z,259.00
2019-03-30T08:11:05.431Z,270.10
2019-03-30T08:12:05.443Z,269.04
2019-03-30T08:13:05.384Z,269.51
2019-03-30T08:14:05.386Z,218.70
2019-03-30T08:15:05.405Z,270.00
2019-03-30T08:16:05.357Z,235.43
2019-03-30T08:17:05.419Z,180.00
2019-03-30T08:18:05.421Z,180.00
2019-03-30T08:19:05.354Z,180.00
2019-03-30T08:20:05.421Z,191.82
2019-03-30T08:21:05.421Z,311.89
2019-03-30T08:22:05.368Z,266.62
2019-03-30T08:23:05.424Z,202.92
2019-03-30T08:24:05.444Z,72.13
2019-03-30T08:25:05.372Z,40.72
2019-03-30T08:26:05.393Z,288.90
2019-03-30T08:27:05.469Z,274.53
2019-03-30T08:28:05.357Z,239.59
2019-03-30T08:29:05.409Z,348.15
2019-03-30T08:30:05.426Z,23.86
2019-03-30T08:31:05.385Z,62.21
2019-03-30T08:32:05.416Z,129.44
2019-03-30T08:33:05.432Z,112.22
2019-03-30T08:34:05.397Z,92.62
2019-03-30T08:35:05.441Z,105.25
2019-03-30T08:36:05.441Z,334.48
2019-03-30T08:37:05.406Z,357.55
2019-03-30T08:38:05.407Z,334.33
2019-03-30T08:39:05.421Z,276.47
2019-03-30T08:40:05.365Z,172.72
2019-03-30T08:41:05.456Z,98.39
2019-03-30T08:42:05.506Z,91.06
2019-03-30T08:43:05.412Z,105.94
2019-03-30T08:44:05.404Z,90.00
2019-03-30T08:45:05.482Z,90.00
2019-03-30T08:46:05.389Z,135.78
2019-03-30T08:47:05.449Z,242.58
2019-03-30T08:48:05.507Z,83.83
2019-03-30T08:49:05.405Z,90.00
2019-03-30T08:50:05.396Z,90.39
2019-03-30T08:51:05.425Z,268.64
2019-03-30T08:52:05.379Z,263.49
2019-03-30T08:53:05.419Z,267.15
2019-03-30T08:54:05.451Z,99.90
2019-03-30T08:55:05.398Z,90.00
2019-03-30T08:56:05.435Z,14.81
2019-03-30T08:57:05.455Z,279.08
2019-03-30T08:58:05.412Z,283.04
2019-03-30T08:59:05.435Z,276.41
2019-03-30T09:00:05.451Z,299.25
2019-03-30T09:01:05.395Z,264.52
2019-03-30T09:02:05.427Z,254.43
2019-03-30T09:03:05.488Z,291.20
2019-03-30T09:04:05.393Z,314.86
2019-03-30T09:05:05.476Z,293.12
2019-03-30T09:06:05.463Z,246.32
2019-03-30T09:07:05.409Z,285.24
2019-03-30T09:08:05.438Z,273.81
2019-03-30T09:09:05.434Z,314.97
2019-03-30T09:10:05.439Z,289.01
2019-03-30T09:11:05.462Z,256.58
2019-03-30T09:12:05.473Z,174.54
2019-03-30T09:13:05.434Z,13.68
2019-03-30T09:14:05.482Z,286.32
2019-03-30T09:15:05.462Z,257.68
2019-03-30T09:16:05.413Z,239.80
2019-03-30T09:17:05.418Z,32.55
2019-03-30T09:18:05.473Z,299.51
2019-03-30T09:19:05.411Z,310.42
2019-03-30T09:20:05.445Z,283.24
2019-03-30T09:21:05.457Z,266.58
2019-03-30T09:22:05.410Z,281.10
2019-03-30T09:23:05.460Z,293.65
2019-03-30T09:24:09.947Z,291.05
2019-03-30T09:25:05.454Z,346.22
2019-03-30T09:26:05.456Z,343.68
2019-03-30T09:27:05.427Z,313.49
2019-03-30T09:28:05.432Z,295.15
2019-03-30T09:29:05.493Z,294.42
2019-03-30T09:30:05.507Z,306.02
2019-03-30T09:31:05.419Z,300.16
2019-03-30T09:32:14.148Z,294.19
2019-03-30T09:33:05.472Z,282.75
2019-03-30T09:34:05.521Z,284.49
2019-03-30T09:35:05.483Z,311.18
2019-03-30T09:36:05.487Z,313.01
2019-03-30T09:37:05.426Z,285.36
2019-03-30T09:38:05.454Z,302.76
2019-03-30T09:39:05.448Z,313.45
2019-03-30T09:40:05.455Z,282.70
2019-03-30T09:41:05.480Z,283.73
2019-03-30T09:42:05.500Z,288.90
2019-03-30T09:43:05.439Z,284.54
2019-03-30T09:44:05.485Z,284.89
2019-03-30T09:45:05.481Z,273.99
2019-03-30T09:46:05.455Z,124.00
2019-03-30T09:47:05.504Z,95.06
2019-03-30T09:48:05.509Z,96.41
2019-03-30T09:49:05.455Z,93.63
2019-03-30T09:50:05.467Z,132.63
2019-03-30T09:51:05.489Z,92.86
2019-03-30T09:52:05.444Z,135.19
2019-03-30T09:53:05.486Z,106.92
2019-03-30T09:54:05.503Z,65.76
2019-03-30T09:55:05.443Z,104.06
2019-03-30T09:56:05.496Z,29.14
2019-03-30T09:57:05.509Z,290.55
2019-03-30T09:58:05.468Z,285.07
2019-03-30T09:59:05.489Z,273.29
2019-03-30T10:00:05.514Z,300.28
2019-03-30T10:01:05.457Z,280.56
2019-03-30T10:02:05.504Z,17.28
2019-03-30T10:03:06.167Z,296.10
2019-03-30T10:04:05.478Z,303.20
2019-03-30T10:05:05.499Z,288.64
2019-03-30T10:06:05.516Z,296.95
2019-03-30T10:07:05.444Z,309.09
2019-03-30T10:08:05.509Z,296.92
2019-03-30T10:09:05.560Z,307.28
2019-03-30T10:10:05.467Z,310.46
2019-03-30T10:11:05.515Z,282.37
2019-03-30T10:12:05.521Z,282.92
2019-03-30T10:13:05.465Z,170.29
2019-03-30T10:14:05.485Z,342.04
2019-03-30T10:15:05.502Z,292.12
2019-03-30T10:16:05.459Z,280.54
2019-03-30T10:17:05.529Z,103.94
2019-03-30T10:18:05.568Z,59.81
2019-03-30T10:19:05.479Z,43.40
2019-03-30T10:20:05.515Z,75.49
2019-03-30T10:21:05.522Z,104.43
2019-03-30T10:22:05.462Z,37.46
2019-03-30T10:23:05.518Z,292.14
2019-03-30T10:24:05.546Z,290.26
2019-03-30T10:25:05.467Z,275.07
2019-03-30T10:26:05.511Z,286.84
2019-03-30T10:27:05.566Z,282.21
2019-03-30T10:28:05.501Z,276.48
2019-03-30T10:29:05.502Z,342.62
2019-03-30T10:30:05.555Z,0.00
2019-03-30T10:31:05.495Z,350.06
2019-03-30T10:32:05.531Z,0.19
2019-03-30T10:33:05.526Z,58.90
2019-03-30T10:34:05.498Z,304.66
2019-03-30T10:35:05.702Z,102.47
2019-03-30T10:36:05.565Z,87.37
2019-03-30T10:37:05.494Z,99.97
2019-03-30T10:38:05.519Z,85.77
2019-03-30T10:39:05.541Z,107.42
2019-03-30T10:40:05.497Z,112.55
2019-03-30T10:41:05.547Z,110.90
2019-03-30T10:42:05.568Z,128.83
2019-03-30T10:43:05.492Z,103.74
2019-03-30T10:44:05.511Z,99.25
2019-03-30T10:45:05.538Z,91.01
2019-03-30T10:46:05.518Z,301.09
2019-03-30T10:47:05.533Z,33.64
2019-03-30T10:48:05.563Z,294.00
2019-03-30T10:49:05.511Z,279.71
2019-03-30T10:50:05.505Z,117.28
2019-03-30T10:51:05.549Z,125.21
2019-03-30T10:52:05.504Z,274.25
2019-03-30T10:53:05.540Z,294.55
2019-03-30T10:54:05.559Z,319.52
2019-03-30T10:55:05.509Z,305.10
2019-03-30T10:56:05.520Z,288.93
2019-03-30T10:57:05.558Z,295.09
2019-03-30T10:58:05.491Z,280.90
2019-03-30T10:59:05.555Z,270.50
2019-03-30T11:00:05.568Z,270.76
2019-03-30T11:01:05.517Z,95.46
2019-03-30T11:02:05.600Z,303.00
2019-03-30T11:03:05.556Z,272.83
2019-03-30T11:04:05.529Z,253.64
2019-03-30T11:05:05.577Z,113.72
2019-03-30T11:06:05.579Z,101.05
2019-03-30T11:07:05.520Z,90.43
2019-03-30T11:08:05.554Z,91.85
2019-03-30T11:09:05.573Z,88.13
2019-03-30T11:10:05.551Z,91.03
2019-03-30T11:11:05.750Z,102.42
2019-03-30T11:12:05.578Z,116.38
2019-03-30T11:13:05.527Z,96.02
2019-03-30T11:14:05.552Z,114.92
2019-03-30T11:15:05.557Z,253.85
2019-03-30T11:16:05.534Z,271.48
2019-03-30T11:17:05.645Z,282.30
2019-03-30T11:18:05.606Z,301.54
2019-03-30T11:19:05.541Z,313.10
2019-03-30T11:20:05.562Z,317.93
2019-03-30T11:21:05.575Z,302.57
2019-03-30T11:22:05.518Z,293.67
2019-03-30T11:23:05.601Z,299.94
2019-03-30T11:24:06.866Z,272.58
2019-03-30T11:25:07.727Z,207.09
2019-03-30T11:26:05.554Z,153.90
2019-03-30T11:27:05.577Z,134.14
2019-03-30T11:28:05.549Z,110.11
2019-03-30T11:29:05.597Z,92.20
2019-03-30T11:30:05.600Z,325.58
2019-03-30T11:31:05.734Z,124.47
2019-03-30T11:32:05.580Z,246.15
2019-03-30T11:33:05.594Z,135.45
2019-03-30T11:34:05.588Z,203.32
2019-03-30T11:35:05.586Z,111.72
2019-03-30T11:36:05.591Z,93.39
2019-03-30T11:37:05.574Z,284.32
2019-03-30T11:38:05.563Z,230.81
2019-03-30T11:39:05.603Z,105.40
2019-03-30T11:40:05.579Z,20.63
2019-03-30T11:41:05.572Z,198.92
2019-03-30T11:42:05.603Z,142.94
2019-03-30T11:43:05.560Z,108.04
2019-03-30T11:44:05.594Z,23.29
2019-03-30T11:45:05.629Z,278.64
2019-03-30T11:46:05.586Z,273.76
2019-03-30T11:47:05.555Z,308.00
2019-03-30T11:48:05.605Z,127.04
2019-03-30T11:49:05.566Z,105.00
2019-03-30T11:50:05.580Z,122.96
2019-03-30T11:51:05.614Z,110.25
2019-03-30T11:52:05.586Z,110.39
2019-03-30T11:53:05.556Z,102.94
2019-03-30T11:54:05.629Z,76.94
2019-03-30T11:55:05.616Z,45.94
2019-03-30T11:56:05.559Z,318.72
2019-03-30T11:57:05.625Z,225.00
2019-03-30T11:58:05.549Z,316.52
2019-03-30T11:59:05.622Z,19.65
2019-03-30T12:00:05.662Z,274.52
2019-03-30T12:01:05.594Z,166.24
2019-03-30T12:02:05.597Z,296.13
2019-03-30T12:03:05.680Z,193.68
2019-03-30T12:04:05.597Z,143.66
2019-03-30T12:05:05.631Z,123.35
2019-03-30T12:06:05.679Z,265.98
2019-03-30T12:07:05.598Z,281.53
2019-03-30T12:08:05.650Z,269.78
2019-03-30T12:09:05.628Z,284.96
2019-03-30T12:10:05.612Z,281.55
2019-03-30T12:11:05.611Z,291.96
2019-03-30T12:12:05.703Z,314.24
2019-03-30T12:13:05.600Z,303.94
2019-03-30T12:14:05.630Z,298.34
2019-03-30T12:15:05.643Z,296.79
2019-03-30T12:16:05.593Z,280.68
2019-03-30T12:17:05.609Z,292.82
2019-03-30T12:18:05.631Z,307.21
2019-03-30T12:19:05.595Z,294.37
2019-03-30T12:20:05.624Z,278.78
2019-03-30T12:21:05.647Z,272.27
2019-03-30T12:22:05.627Z,222.37
2019-03-30T12:23:05.590Z,266.12
2019-03-30T12:24:05.648Z,275.80
2019-03-30T12:25:05.645Z,273.75
2019-03-30T12:26:05.632Z,293.28
2019-03-30T12:27:05.657Z,300.79
2019-03-30T12:28:05.629Z,313.39
2019-03-30T12:29:05.628Z,105.30
2019-03-30T12:30:05.674Z,87.36
2019-03-30T12:31:05.620Z,108.66
2019-03-30T12:32:05.621Z,84.84